Time;durP1;ratioP1;P1;durP2;ratioP2;P2;SDS_P1;SDS_P2;PMS_P1;PMS_P2;Temp;Humidity;BMP_temperature;BMP_pressure;BME280_temperature;BME280_humidity;BME280_pressure;Samples;Min_cycle;Max_cycle;Signal;HPM_P1;HPM_P2
2023/03/18 00:01:28;;;;;;;23.08;15.88;;;10.70;99.90;;;;;;4990681;28;20080;-83
2023/03/18 00:03:54;;;;;;;21.63;14.82;;;10.70;99.90;;;;;;4974350;28;20045;-83
2023/03/18 00:06:20;;;;;;;22.00;15.05;;;10.70;99.90;;;;;;4970798;28;20053;-83
2023/03/18 00:08:47;;;;;;;22.45;16.80;;;10.70;99.90;;;;;;4986576;28;20061;-83
2023/03/18 00:11:14;;;;;;;23.35;17.20;;;10.60;99.90;;;;;;4985650;28;20048;-83
2023/03/18 00:13:41;;;;;;;24.23;16.02;;;10.60;99.90;;;;;;4975206;28;20057;-82
2023/03/18 00:16:10;;;;;;;24.33;17.25;;;10.50;99.90;;;;;;4970608;28;20382;-82
2023/03/18 00:18:36;;;;;;;23.67;16.50;;;10.40;99.90;;;;;;5006184;28;20531;-82
2023/03/18 00:21:03;;;;;;;24.00;16.45;;;10.40;99.90;;;;;;5008216;28;20050;-82
2023/03/18 00:23:30;;;;;;;23.35;18.45;;;10.40;99.90;;;;;;5002523;28;22516;-83
2023/03/18 00:25:57;;;;;;;24.10;17.85;;;10.40;99.90;;;;;;4996149;28;20053;-82
2023/03/18 00:28:23;;;;;;;29.83;18.20;;;10.40;99.90;;;;;;5003997;28;20044;-83
2023/03/18 00:30:50;;;;;;;25.90;18.15;;;10.30;99.90;;;;;;5009706;28;20045;-83
2023/03/18 00:33:17;;;;;;;26.80;17.65;;;10.40;99.90;;;;;;5005882;28;20068;-83
2023/03/18 00:35:44;;;;;;;26.13;17.75;;;10.30;99.90;;;;;;4973041;28;20053;-82
2023/03/18 00:38:19;;;;;;;28.48;18.95;;;10.30;99.90;;;;;;4989514;28;20052;-82
2023/03/18 00:40:52;;;;;;;28.13;19.15;;;10.30;99.90;;;;;;4992030;28;20132;-82
2023/03/18 00:43:21;;;;;;;28.27;18.77;;;10.20;99.90;;;;;;4992019;28;20681;-82
2023/03/18 00:45:49;;;;;;;26.55;18.98;;;10.30;99.90;;;;;;4991207;28;20069;-82
2023/03/18 00:48:16;;;;;;;28.23;18.52;;;10.20;99.90;;;;;;5007461;28;20046;-83
2023/03/18 00:50:43;;;;;;;29.13;20.13;;;10.10;99.90;;;;;;5008244;28;20045;-82
2023/03/18 00:53:10;;;;;;;29.27;19.70;;;10.10;99.90;;;;;;5007015;28;20050;-82
2023/03/18 00:55:36;;;;;;;25.58;19.88;;;10.10;99.90;;;;;;4987126;28;20131;-82
2023/03/18 00:58:02;;;;;;;27.15;19.77;;;10.00;99.90;;;;;;4985376;28;20026;-80
2023/03/18 01:00:27;;;;;;;30.00;20.95;;;10.00;99.90;;;;;;5002810;28;21550;-82
2023/03/18 01:02:53;;;;;;;29.20;20.85;;;10.00;99.90;;;;;;4990126;28;20462;-82
2023/03/18 01:05:19;;;;;;;30.48;21.67;;;9.90;99.90;;;;;;4986664;28;20034;-83
2023/03/18 01:07:46;;;;;;;30.92;22.92;;;9.90;99.90;;;;;;4984000;28;20489;-83
2023/03/18 01:10:12;;;;;;;32.78;22.95;;;9.80;99.90;;;;;;4984916;28;20065;-83
2023/03/18 01:12:39;;;;;;;33.95;23.17;;;9.80;99.90;;;;;;4986860;28;20099;-82
2023/03/18 01:15:08;;;;;;;32.88;23.80;;;9.80;99.90;;;;;;5003446;28;20766;-81
2023/03/18 01:17:34;;;;;;;35.72;24.73;;;9.70;99.90;;;;;;4972423;28;20041;-83
2023/03/18 01:19:59;;;;;;;35.75;24.80;;;9.70;99.90;;;;;;4982874;28;21652;-82
2023/03/18 01:22:25;;;;;;;33.72;25.58;;;9.60;99.90;;;;;;4988306;28;20124;-81
2023/03/18 01:24:51;;;;;;;37.67;26.67;;;9.50;99.90;;;;;;5007681;28;20064;-81
2023/03/18 01:27:17;;;;;;;35.72;25.13;;;9.50;99.90;;;;;;4980166;28;20072;-82
2023/03/18 01:29:43;;;;;;;38.67;26.73;;;9.50;99.90;;;;;;4986446;28;20053;-82
2023/03/18 01:32:08;;;;;;;36.72;25.88;;;9.40;99.90;;;;;;5008349;28;20045;-82
2023/03/18 01:34:34;;;;;;;34.65;25.42;;;9.40;99.90;;;;;;4986652;28;20080;-82
2023/03/18 01:37:01;;;;;;;37.35;25.70;;;9.30;99.90;;;;;;5008000;28;20404;-82
2023/03/18 01:39:27;;;;;;;33.88;25.20;;;9.20;99.90;;;;;;4986373;28;20094;-82
2023/03/18 01:41:53;;;;;;;39.70;26.42;;;9.20;99.90;;;;;;4977843;28;20481;-82
2023/03/18 01:44:23;;;;;;;38.08;27.48;;;9.10;99.90;;;;;;4989609;28;20038;-81
2023/03/18 01:46:50;;;;;;;39.22;28.10;;;9.00;99.90;;;;;;5004747;28;20046;-82
2023/03/18 01:49:21;;;;;;;38.17;28.23;;;9.00;99.90;;;;;;4991024;28;20049;-82
2023/03/18 01:51:57;;;;;;;38.80;27.30;;;8.90;99.90;;;;;;5002657;28;20422;-81
2023/03/18 01:54:24;;;;;;;43.10;28.40;;;8.90;99.90;;;;;;5004837;28;20058;-82
2023/03/18 01:56:52;;;;;;;35.85;27.45;;;8.80;99.90;;;;;;5006512;28;20046;-82
2023/03/18 01:59:20;;;;;;;37.28;28.15;;;8.80;99.90;;;;;;4999724;28;20037;-82
2023/03/18 02:01:57;;;;;;;36.80;28.30;;;8.70;99.90;;;;;;4979491;28;20133;-82
2023/03/18 02:04:27;;;;;;;41.20;28.52;;;8.60;99.90;;;;;;5004720;28;20687;-82
2023/03/18 02:06:53;;;;;;;43.65;31.08;;;8.60;99.90;;;;;;5004888;28;20180;-82
2023/03/18 02:09:19;;;;;;;43.80;30.52;;;8.60;99.90;;;;;;4988835;28;20641;-82
2023/03/18 02:11:48;;;;;;;44.67;30.35;;;8.60;99.90;;;;;;5008234;28;20042;-82
2023/03/18 02:14:16;;;;;;;51.38;33.08;;;8.60;99.90;;;;;;4991744;28;20045;-82
2023/03/18 02:17:03;;;;;;;47.90;32.35;;;8.60;99.90;;;;;;4998276;28;20540;-81
2023/03/18 02:19:41;;;;;;;46.88;31.35;;;8.60;99.90;;;;;;5002661;28;21530;-82
2023/03/18 02:22:16;;;;;;;46.97;31.02;;;8.60;99.90;;;;;;5003096;28;20505;-81
2023/03/18 02:25:02;;;;;;;44.28;31.33;;;8.50;99.90;;;;;;5012587;28;20425;-81
2023/03/18 02:27:34;;;;;;;47.00;32.20;;;8.50;99.90;;;;;;5002369;28;20497;-82
2023/03/18 02:30:13;;;;;;;47.33;31.07;;;8.40;99.90;;;;;;5009039;28;20490;-82
2023/03/18 02:32:41;;;;;;;47.20;31.23;;;8.40;99.90;;;;;;4993623;28;20295;-81
2023/03/18 02:35:09;;;;;;;42.83;29.88;;;8.30;99.90;;;;;;4999497;28;20080;-80
2023/03/18 02:37:35;;;;;;;50.67;32.85;;;8.20;99.90;;;;;;4992123;28;20041;-82
2023/03/18 02:40:22;;;;;;;49.85;33.72;;;8.20;99.90;;;;;;4990911;28;20096;-82
2023/03/18 02:42:49;;;;;;;53.00;34.28;;;8.10;99.90;;;;;;5013848;28;20180;-82
2023/03/18 02:45:28;;;;;;;45.40;34.50;;;8.10;99.90;;;;;;4998408;28;20085;-81
2023/03/18 02:47:55;;;;;;;46.30;31.92;;;8.10;99.90;;;;;;4992287;28;20145;-82
2023/03/18 02:50:20;;;;;;;52.03;33.85;;;8.10;99.90;;;;;;5011813;28;20102;-81
2023/03/18 02:52:46;;;;;;;48.53;34.28;;;8.00;99.90;;;;;;5003068;28;20107;-81
2023/03/18 02:55:11;;;;;;;49.95;33.47;;;8.00;99.90;;;;;;5011207;28;20573;-82
2023/03/18 02:57:37;;;;;;;52.42;34.75;;;7.90;99.90;;;;;;5016815;28;20048;-82
2023/03/18 03:00:04;;;;;;;48.33;32.85;;;7.90;99.90;;;;;;4979844;28;20053;-80
2023/03/18 03:02:30;;;;;;;57.65;38.63;;;8.00;99.90;;;;;;5012490;28;20053;-82
2023/03/18 03:04:56;;;;;;;57.65;37.20;;;7.90;99.90;;;;;;4995729;28;20115;-82
2023/03/18 03:07:25;;;;;;;59.95;37.60;;;7.90;99.90;;;;;;4973088;28;20154;-82
2023/03/18 03:09:51;;;;;;;53.63;37.10;;;7.90;99.90;;;;;;4976409;28;20037;-81
2023/03/18 03:12:17;;;;;;;59.72;37.63;;;7.90;99.90;;;;;;4992669;28;20055;-81
2023/03/18 03:14:43;;;;;;;54.22;36.35;;;7.90;99.90;;;;;;4994720;28;20210;-81
2023/03/18 03:17:09;;;;;;;59.63;37.15;;;7.90;99.90;;;;;;5008324;28;20294;-82
2023/03/18 03:19:35;;;;;;;55.70;37.65;;;7.80;99.90;;;;;;4987831;28;20057;-82
2023/03/18 03:22:01;;;;;;;54.95;36.63;;;7.70;99.90;;;;;;5011562;28;20191;-76
2023/03/18 03:24:26;;;;;;;57.75;38.65;;;7.70;99.90;;;;;;4993070;28;20049;-81
2023/03/18 03:26:52;;;;;;;54.85;35.35;;;7.60;99.90;;;;;;4976815;28;20212;-81
2023/03/18 03:29:19;;;;;;;57.42;36.83;;;7.70;99.90;;;;;;5005926;28;20460;-81
2023/03/18 03:31:45;;;;;;;53.95;38.45;;;7.60;99.90;;;;;;5007094;28;20041;-81
2023/03/18 03:34:11;;;;;;;59.67;38.08;;;7.60;99.90;;;;;;5011292;28;20053;-81
2023/03/18 03:36:36;;;;;;;57.28;38.25;;;7.50;99.90;;;;;;4989318;28;20053;-80
2023/03/18 03:39:03;;;;;;;62.50;40.40;;;7.50;99.90;;;;;;5006454;28;20050;-80
2023/03/18 03:41:28;;;;;;;60.05;37.33;;;7.50;99.90;;;;;;5008399;28;20103;-81
2023/03/18 03:43:54;;;;;;;55.80;36.58;;;7.40;99.90;;;;;;5010970;28;20065;-81
2023/03/18 03:46:20;;;;;;;60.10;37.92;;;7.40;99.90;;;;;;4974024;28;20527;-81
2023/03/18 03:48:46;;;;;;;56.20;37.65;;;7.40;99.90;;;;;;5002383;28;20140;-80
2023/03/18 03:51:13;;;;;;;52.78;35.70;;;7.30;99.90;;;;;;5009335;28;20048;-80
2023/03/18 03:53:39;;;;;;;59.85;36.10;;;7.20;99.90;;;;;;5008612;28;20129;-80
2023/03/18 03:56:10;;;;;;;58.78;34.83;;;7.20;99.90;;;;;;5007105;28;20054;-80
2023/03/18 03:58:36;;;;;;;55.90;35.55;;;7.20;99.90;;;;;;4987403;28;20349;-80
2023/03/18 04:01:03;;;;;;;57.03;34.92;;;7.20;99.90;;;;;;5004666;28;20127;-79
2023/03/18 04:03:28;;;;;;;60.58;35.05;;;7.20;99.90;;;;;;5003684;28;20050;-81
2023/03/18 04:05:55;;;;;;;58.03;34.28;;;7.20;99.90;;;;;;4989853;28;20057;-80
2023/03/18 04:08:20;;;;;;;55.58;36.35;;;7.20;99.90;;;;;;4959152;28;20046;-81
2023/03/18 04:10:46;;;;;;;52.45;34.20;;;7.20;99.90;;;;;;4990280;28;20562;-81
2023/03/18 04:13:12;;;;;;;52.72;35.15;;;7.10;99.90;;;;;;5014867;28;20041;-81
2023/03/18 04:15:37;;;;;;;57.45;36.35;;;7.10;99.90;;;;;;4994532;28;20112;-81
2023/03/18 04:18:05;;;;;;;59.70;35.72;;;7.20;99.90;;;;;;5009285;28;20045;-80
2023/03/18 04:20:36;;;;;;;60.80;36.03;;;7.30;99.90;;;;;;4987987;28;20048;-81
2023/03/18 04:23:03;;;;;;;77.68;38.95;;;7.20;99.90;;;;;;4992349;28;20061;-79
2023/03/18 04:25:29;;;;;;;84.00;39.20;;;7.30;99.90;;;;;;4982700;28;20053;-81
2023/03/18 04:27:55;;;;;;;104.20;42.33;;;7.50;99.90;;;;;;5000570;28;20468;-81
2023/03/18 04:30:24;;;;;;;110.40;41.22;;;7.60;99.90;;;;;;4993652;28;20331;-81
2023/03/18 04:32:50;;;;;;;157.70;42.22;;;7.70;99.90;;;;;;4986942;28;20049;-81
2023/03/18 04:35:16;;;;;;;138.23;39.38;;;7.70;99.90;;;;;;4986315;28;20061;-81
2023/03/18 04:37:43;;;;;;;129.77;34.92;;;7.90;99.90;;;;;;4988697;28;21343;-81
2023/03/18 04:40:10;;;;;;;195.13;40.13;;;7.90;99.90;;;;;;5005674;28;20045;-81
2023/03/18 04:42:37;;;;;;;208.43;41.90;;;7.90;99.90;;;;;;4990281;28;20087;-82
2023/03/18 04:45:04;;;;;;;275.30;42.63;;;8.00;99.90;;;;;;4989221;28;20463;-81
2023/03/18 04:47:32;;;;;;;185.07;35.22;;;8.10;99.90;;;;;;4976483;28;20115;-81
2023/03/18 04:49:57;;;;;;;217.60;32.33;;;8.00;99.90;;;;;;5003868;28;20049;-82
2023/03/18 04:52:23;;;;;;;266.45;32.95;;;8.00;99.90;;;;;;5005514;28;20048;-81
2023/03/18 04:54:49;;;;;;;221.63;29.45;;;8.10;99.90;;;;;;5007092;28;20033;-82
2023/03/18 04:57:15;;;;;;;212.40;29.98;;;8.20;99.90;;;;;;4987415;28;20619;-81
2023/03/18 04:59:42;;;;;;;204.07;30.15;;;8.20;99.90;;;;;;4986390;28;20092;-81
2023/03/18 05:02:08;;;;;;;213.95;30.52;;;8.20;99.90;;;;;;4973204;28;20061;-81
2023/03/18 05:04:34;;;;;;;243.18;31.15;;;8.20;99.90;;;;;;4988158;28;20053;-82
2023/03/18 05:07:00;;;;;;;198.93;28.42;;;8.10;99.90;;;;;;4991812;28;20501;-82
2023/03/18 05:09:26;;;;;;;167.07;24.50;;;8.10;99.90;;;;;;5008904;28;20069;-82
2023/03/18 05:11:52;;;;;;;243.05;28.55;;;8.20;99.90;;;;;;4972701;28;20045;-81
2023/03/18 05:14:18;;;;;;;285.55;28.70;;;8.20;99.90;;;;;;5002250;28;20038;-82
2023/03/18 05:16:44;;;;;;;235.52;28.10;;;8.10;99.90;;;;;;4985698;28;20045;-81
2023/03/18 05:19:10;;;;;;;229.50;27.25;;;8.20;99.90;;;;;;5004813;28;20057;-81
2023/03/18 05:21:36;;;;;;;250.02;29.45;;;8.30;99.90;;;;;;4989682;28;20064;-82
2023/03/18 05:24:01;;;;;;;236.80;30.90;;;8.10;99.90;;;;;;4985717;28;20157;-81
2023/03/18 05:26:28;;;;;;;288.40;34.97;;;8.20;99.90;;;;;;5007540;28;20053;-82
2023/03/18 05:28:53;;;;;;;300.17;36.10;;;8.20;99.90;;;;;;5000130;28;20046;-82
2023/03/18 05:31:19;;;;;;;251.60;33.90;;;8.20;99.90;;;;;;4987469;28;20413;-82
2023/03/18 05:33:45;;;;;;;319.55;42.10;;;8.30;99.90;;;;;;4984075;28;20405;-82
2023/03/18 05:36:12;;;;;;;320.95;43.75;;;8.30;99.90;;;;;;4999095;28;20342;-82
2023/03/18 05:38:37;;;;;;;279.15;42.55;;;8.30;99.90;;;;;;4972157;28;20060;-81
2023/03/18 05:41:03;;;;;;;315.95;43.13;;;8.30;99.90;;;;;;4982557;28;20403;-80
2023/03/18 05:43:30;;;;;;;252.82;45.60;;;8.20;99.90;;;;;;4985351;28;20042;-82
2023/03/18 05:45:56;;;;;;;323.50;49.92;;;8.30;99.90;;;;;;4981658;28;20045;-82
2023/03/18 05:48:22;;;;;;;256.58;49.78;;;8.20;99.90;;;;;;5003213;28;20053;-81
2023/03/18 05:50:47;;;;;;;286.92;51.50;;;8.30;99.90;;;;;;4998087;28;20049;-81
2023/03/18 05:53:15;;;;;;;280.75;57.45;;;8.30;99.90;;;;;;5001233;28;20050;-82
2023/03/18 05:55:41;;;;;;;183.70;50.13;;;8.20;99.90;;;;;;4984705;28;20123;-81
2023/03/18 05:58:07;;;;;;;265.20;56.33;;;8.20;99.90;;;;;;4984251;28;20497;-80
2023/03/18 06:00:33;;;;;;;181.82;51.75;;;8.10;99.90;;;;;;5002533;28;20103;-81
2023/03/18 06:03:00;;;;;;;262.10;54.17;;;8.10;99.90;;;;;;5006183;28;20050;-81
2023/03/18 06:05:27;;;;;;;190.20;49.67;;;8.10;99.90;;;;;;5003941;28;20046;-81
2023/03/18 06:07:53;;;;;;;194.98;50.85;;;8.20;99.90;;;;;;5002880;28;20049;-81
2023/03/18 06:10:21;;;;;;;178.63;51.83;;;8.10;99.90;;;;;;4986430;28;20104;-81
2023/03/18 06:12:48;;;;;;;136.93;46.75;;;7.90;99.90;;;;;;5004047;28;20052;-80
2023/03/18 06:15:14;;;;;;;131.90;48.47;;;7.90;99.90;;;;;;4989424;28;20436;-82
2023/03/18 06:17:40;;;;;;;121.97;49.20;;;7.90;99.90;;;;;;4999486;28;20489;-81
2023/03/18 06:20:08;;;;;;;112.93;48.47;;;7.90;99.90;;;;;;4971925;28;20500;-80
2023/03/18 06:22:35;;;;;;;109.70;47.10;;;7.80;99.90;;;;;;4973010;28;20316;-80
2023/03/18 06:25:03;;;;;;;106.97;45.10;;;7.80;99.90;;;;;;5007864;28;20038;-79
2023/03/18 06:27:29;;;;;;;105.22;46.67;;;7.90;99.90;;;;;;4977507;28;20045;-82
2023/03/18 06:29:55;;;;;;;99.40;46.65;;;7.80;99.90;;;;;;5000946;28;20458;-81
2023/03/18 06:32:21;;;;;;;97.57;47.40;;;7.90;99.90;;;;;;5001834;28;20378;-81
2023/03/18 06:34:46;;;;;;;95.20;47.25;;;8.00;99.90;;;;;;5002253;28;20053;-82
2023/03/18 06:37:12;;;;;;;107.88;53.67;;;7.90;99.90;;;;;;4995514;28;20076;-80
2023/03/18 06:39:38;;;;;;;94.05;46.95;;;8.00;99.90;;;;;;4984708;28;20046;-78
2023/03/18 06:42:03;;;;;;;94.45;48.00;;;8.10;99.90;;;;;;4984102;28;20228;-85
2023/03/18 06:44:29;;;;;;;81.97;44.97;;;8.10;99.90;;;;;;5010655;28;20494;-89
2023/03/18 06:46:55;;;;;;;87.78;46.85;;;8.10;99.90;;;;;;4982151;28;20045;-81
2023/03/18 06:49:22;;;;;;;88.78;46.40;;;8.10;99.90;;;;;;4945100;28;20046;-81
2023/03/18 06:51:49;;;;;;;97.75;47.72;;;8.20;99.90;;;;;;5008035;28;20065;-82
2023/03/18 06:54:15;;;;;;;95.68;48.75;;;8.20;99.90;;;;;;5007144;28;20059;-82
2023/03/18 06:56:41;;;;;;;90.18;48.03;;;8.30;99.90;;;;;;5005430;28;20339;-80
2023/03/18 06:59:08;;;;;;;84.75;46.72;;;8.40;99.90;;;;;;4994738;28;20046;-80
2023/03/18 07:01:35;;;;;;;90.80;48.65;;;8.40;99.90;;;;;;5005851;28;20046;-82
2023/03/18 07:04:02;;;;;;;90.80;46.50;;;8.40;99.90;;;;;;5005611;28;20029;-82
2023/03/18 07:06:31;;;;;;;93.00;49.25;;;8.50;99.90;;;;;;5008304;28;20088;-81
2023/03/18 07:08:57;;;;;;;86.63;48.67;;;8.50;99.90;;;;;;5011090;28;20056;-82
2023/03/18 07:11:24;;;;;;;90.25;49.67;;;8.60;99.90;;;;;;4993448;28;20255;-82
2023/03/18 07:13:50;;;;;;;83.22;48.28;;;8.50;99.90;;;;;;5005370;28;20103;-81
2023/03/18 07:16:15;;;;;;;85.82;49.45;;;8.50;99.90;;;;;;5018648;28;20547;-82
2023/03/18 07:18:41;;;;;;;83.65;46.90;;;8.70;99.90;;;;;;4998859;28;20049;-82
2023/03/18 07:21:08;;;;;;;78.95;46.75;;;8.60;99.90;;;;;;5016779;28;20141;-83
2023/03/18 07:23:34;;;;;;;77.45;46.50;;;8.80;99.90;;;;;;5010241;28;20042;-83
2023/03/18 07:26:00;;;;;;;83.47;50.40;;;8.80;99.90;;;;;;4997024;28;20053;-82
2023/03/18 07:28:26;;;;;;;77.93;48.28;;;8.90;99.90;;;;;;5018584;28;20504;-82
2023/03/18 07:30:52;;;;;;;87.63;52.63;;;9.00;99.90;;;;;;5020127;28;20041;-81
2023/03/18 07:33:18;;;;;;;78.25;49.13;;;9.20;99.90;;;;;;5009001;28;20057;-82
2023/03/18 07:35:43;;;;;;;71.90;48.42;;;9.40;99.90;;;;;;5016522;28;20052;-82
2023/03/18 07:38:10;;;;;;;66.30;44.45;;;9.50;99.90;;;;;;4993609;28;20050;-81
2023/03/18 07:40:36;;;;;;;68.32;43.65;;;9.60;99.90;;;;;;5017488;28;20493;-81
2023/03/18 07:43:03;;;;;;;70.78;45.35;;;9.60;99.90;;;;;;4995057;28;20068;-81
2023/03/18 07:45:29;;;;;;;69.40;43.92;;;9.60;99.90;;;;;;4994482;28;20046;-82
2023/03/18 07:47:55;;;;;;;67.85;45.15;;;9.70;99.90;;;;;;4997836;28;20041;-81
2023/03/18 07:50:21;;;;;;;66.00;43.08;;;9.60;99.90;;;;;;4951005;28;20077;-82
2023/03/18 07:52:47;;;;;;;64.05;42.30;;;9.70;99.90;;;;;;5018781;28;20394;-82
2023/03/18 07:55:13;;;;;;;66.35;43.92;;;9.60;99.90;;;;;;5003333;28;20045;-82
2023/03/18 07:57:39;;;;;;;64.30;43.25;;;9.60;99.90;;;;;;5001339;28;20056;-82
2023/03/18 08:00:06;;;;;;;62.22;42.40;;;9.80;99.90;;;;;;4994526;28;20052;-81
2023/03/18 08:02:33;;;;;;;59.38;42.08;;;9.70;99.90;;;;;;5011622;28;20053;-81
2023/03/18 08:04:59;;;;;;;64.78;44.50;;;9.70;99.90;;;;;;4982561;28;20087;-75
2023/03/18 08:07:24;;;;;;;60.03;41.88;;;9.90;99.90;;;;;;4992823;28;20505;-76
2023/03/18 08:09:50;;;;;;;60.22;41.97;;;9.90;99.90;;;;;;4998521;28;20487;-75
2023/03/18 08:12:17;;;;;;;60.50;41.40;;;9.90;99.90;;;;;;4995052;28;20183;-75
2023/03/18 08:14:43;;;;;;;58.83;39.97;;;10.00;99.90;;;;;;5002561;28;20058;-75
2023/03/18 08:17:09;;;;;;;57.35;39.88;;;10.00;99.90;;;;;;5001111;28;20442;-75
2023/03/18 08:19:34;;;;;;;53.65;37.08;;;10.00;99.90;;;;;;5020414;28;20042;-75
2023/03/18 08:22:00;;;;;;;58.90;39.85;;;10.10;99.90;;;;;;5005234;28;20045;-75
2023/03/18 08:24:26;;;;;;;56.28;39.80;;;9.90;99.90;;;;;;5009116;28;20509;-75
2023/03/18 08:26:52;;;;;;;55.65;39.80;;;10.10;99.90;;;;;;5000416;28;20050;-75
2023/03/18 08:29:18;;;;;;;61.42;37.50;;;10.10;99.90;;;;;;5001723;28;20041;-74
2023/03/18 08:31:44;;;;;;;54.75;37.33;;;10.00;99.90;;;;;;5000182;28;20042;-73
2023/03/18 08:34:09;;;;;;;49.65;36.40;;;10.20;99.90;;;;;;5001695;28;20061;-74
2023/03/18 08:36:35;;;;;;;58.40;39.33;;;10.20;99.90;;;;;;4993284;28;20080;-74
2023/03/18 08:39:02;;;;;;;51.35;37.85;;;10.20;99.90;;;;;;4985138;28;20132;-74
2023/03/18 08:41:28;;;;;;;47.03;35.05;;;10.30;99.90;;;;;;5002785;28;20045;-75
2023/03/18 08:43:56;;;;;;;56.17;35.58;;;10.30;99.90;;;;;;5011787;28;20034;-75
2023/03/18 08:46:22;;;;;;;48.67;36.40;;;10.40;99.90;;;;;;4985625;28;20038;-75
2023/03/18 08:48:48;;;;;;;49.53;35.92;;;10.40;99.90;;;;;;4955570;28;20049;-75
2023/03/18 08:51:15;;;;;;;48.92;36.60;;;10.50;99.90;;;;;;5020300;28;20041;-76
2023/03/18 08:53:41;;;;;;;46.95;33.08;;;10.60;99.90;;;;;;5003574;28;20049;-77
2023/03/18 08:56:07;;;;;;;47.00;34.42;;;10.50;99.90;;;;;;5018627;28;20050;-76
2023/03/18 08:58:34;;;;;;;46.63;33.55;;;10.60;99.90;;;;;;5006515;28;20049;-76
2023/03/18 09:01:02;;;;;;;50.90;36.13;;;10.70;99.90;;;;;;4985147;28;20065;-76
2023/03/18 09:03:29;;;;;;;47.35;34.20;;;10.70;99.90;;;;;;5010733;28;20068;-76
2023/03/18 09:05:54;;;;;;;48.30;34.60;;;10.80;99.90;;;;;;5009805;28;20042;-76
2023/03/18 09:08:21;;;;;;;48.03;34.63;;;10.80;99.90;;;;;;4994192;28;21591;-77
2023/03/18 09:10:51;;;;;;;45.33;33.88;;;10.90;99.90;;;;;;5009939;28;20045;-78
2023/03/18 09:13:16;;;;;;;49.28;33.58;;;11.00;99.90;;;;;;4990690;28;20049;-75
2023/03/18 09:15:42;;;;;;;48.45;33.72;;;11.10;99.90;;;;;;5014859;28;20064;-75
2023/03/18 09:18:08;;;;;;;46.55;31.27;;;11.10;99.90;;;;;;5018828;28;20072;-77
2023/03/18 09:20:34;;;;;;;46.50;33.85;;;11.20;99.90;;;;;;5012697;28;20046;-76
2023/03/18 09:22:59;;;;;;;45.90;31.88;;;11.20;99.90;;;;;;5008593;28;20057;-76
2023/03/18 09:25:25;;;;;;;39.80;29.95;;;11.20;99.90;;;;;;4993997;28;20045;-76
2023/03/18 09:27:52;;;;;;;46.75;32.65;;;11.30;99.90;;;;;;5011466;28;20051;-76
2023/03/18 09:30:18;;;;;;;49.03;31.55;;;11.20;99.90;;;;;;5002120;28;20094;-76
2023/03/18 09:32:43;;;;;;;45.35;32.55;;;11.30;99.90;;;;;;5020521;28;20275;-75
2023/03/18 09:35:13;;;;;;;49.08;33.30;;;11.40;99.90;;;;;;5026772;28;20049;-75
2023/03/18 09:37:39;;;;;;;44.63;32.13;;;11.40;99.90;;;;;;4992432;28;20034;-77
2023/03/18 09:40:06;;;;;;;45.55;32.92;;;11.50;99.90;;;;;;5012257;28;20072;-75
2023/03/18 09:43:08;;;;;;;39.15;31.08;;;11.70;99.90;;;;;;4982454;28;20090;-77
2023/03/18 09:45:43;;;;;;;39.35;27.63;;;11.80;99.90;;;;;;4980941;28;20093;-78
2023/03/18 09:48:35;;;;;;;39.60;28.77;;;11.80;99.90;;;;;;5026849;28;20132;-78
2023/03/18 09:51:28;;;;;;;40.78;29.80;;;12.00;99.90;;;;;;4934039;28;20053;-77
2023/03/18 09:54:14;;;;;;;40.80;29.52;;;12.00;99.90;;;;;;5008322;28;20136;-78
2023/03/18 09:56:41;;;;;;;37.38;28.85;;;12.10;99.90;;;;;;4990600;28;20041;-77
2023/03/18 09:59:23;;;;;;;36.22;26.45;;;12.20;99.90;;;;;;5005860;28;20493;-77
2023/03/18 10:01:53;;;;;;;31.75;24.65;;;12.30;99.90;;;;;;4992231;28;20048;-77
2023/03/18 10:04:26;;;;;;;30.88;24.23;;;12.30;99.90;;;;;;4997081;28;20103;-78
2023/03/18 10:07:06;;;;;;;31.25;23.70;;;12.60;99.90;;;;;;5015530;28;20053;-80
2023/03/18 10:09:37;;;;;;;30.98;22.83;;;12.70;99.90;;;;;;5008270;28;20172;-81
2023/03/18 10:12:35;;;;;;;28.13;20.73;;;12.80;99.90;;;;;;5005916;28;20694;-75
2023/03/18 10:15:20;;;;;;;27.35;19.38;;;12.80;99.90;;;;;;4991507;28;20092;-76
2023/03/18 10:17:53;;;;;;;25.17;18.55;;;12.80;99.90;;;;;;4981163;28;20107;-78
2023/03/18 10:20:33;;;;;;;24.33;20.27;;;12.80;99.90;;;;;;5004467;28;20037;-77
2023/03/18 10:23:19;;;;;;;25.33;17.75;;;12.70;99.90;;;;;;5014920;28;20062;-75
2023/03/18 10:25:55;;;;;;;26.80;18.58;;;12.80;99.90;;;;;;5015334;28;20080;-76
2023/03/18 10:28:41;;;;;;;21.25;17.23;;;12.90;99.90;;;;;;5013430;28;20064;-77
2023/03/18 10:31:13;;;;;;;22.13;17.45;;;13.10;99.90;;;;;;5008051;28;20049;-75
2023/03/18 10:33:47;;;;;;;19.52;16.85;;;13.20;99.90;;;;;;5009140;28;20042;-75
2023/03/18 10:36:29;;;;;;;23.60;15.57;;;13.30;99.90;;;;;;5009776;28;20050;-77
2023/03/18 10:38:56;;;;;;;22.67;16.13;;;13.40;99.90;;;;;;5013520;28;20054;-76
2023/03/18 10:41:32;;;;;;;24.90;16.80;;;13.50;99.90;;;;;;5018070;28;20232;-76
2023/03/18 10:44:03;;;;;;;19.90;14.60;;;13.60;99.90;;;;;;4985959;28;20116;-77
2023/03/18 10:46:30;;;;;;;21.02;15.85;;;13.70;99.90;;;;;;5021994;28;20042;-77
2023/03/18 10:49:07;;;;;;;11.30;8.93;;;13.90;99.90;;;;;;5019770;28;20484;-76
2023/03/18 10:51:35;;;;;;;11.23;8.80;;;13.90;99.90;;;;;;4972281;28;20073;-76
2023/03/18 10:54:39;;;;;;;12.40;8.13;;;14.00;99.90;;;;;;5004647;28;20046;-75
2023/03/18 10:57:05;;;;;;;11.23;8.02;;;14.10;99.90;;;;;;4980098;28;20069;-77
2023/03/18 10:59:33;;;;;;;10.40;7.80;;;14.20;99.90;;;;;;5000016;28;20159;-78
2023/03/18 11:02:05;;;;;;;9.93;6.07;;;14.30;99.90;;;;;;5013143;28;20033;-77
2023/03/18 11:04:40;;;;;;;10.63;7.38;;;14.30;99.90;;;;;;5022153;28;20046;-79
2023/03/18 11:07:12;;;;;;;10.75;7.43;;;14.40;99.90;;;;;;5014964;28;20053;-79
2023/03/18 11:09:41;;;;;;;11.55;7.05;;;14.50;99.90;;;;;;5016688;28;20045;-74
2023/03/18 11:12:15;;;;;;;8.90;5.90;;;14.60;99.90;;;;;;4980573;28;20050;-76
2023/03/18 11:14:49;;;;;;;9.43;5.30;;;14.70;99.90;;;;;;4992994;28;21850;-76
2023/03/18 11:17:32;;;;;;;10.23;7.10;;;14.80;99.90;;;;;;4980486;28;20180;-77
2023/03/18 11:20:19;;;;;;;10.18;7.07;;;14.90;99.90;;;;;;5010637;28;20041;-74
2023/03/18 11:22:49;;;;;;;8.52;5.68;;;15.00;99.90;;;;;;4994426;28;20231;-75
2023/03/18 11:25:22;;;;;;;7.30;5.13;;;15.10;99.90;;;;;;5018915;28;20116;-75
2023/03/18 11:27:57;;;;;;;12.15;8.40;;;15.10;99.90;;;;;;4999171;28;20088;-77
2023/03/18 11:30:25;;;;;;;12.50;9.07;;;15.20;99.90;;;;;;5012707;28;20509;-77
2023/03/18 11:33:03;;;;;;;14.60;9.18;;;15.30;99.90;;;;;;5001318;28;20041;-79
2023/03/18 11:35:53;;;;;;;12.43;7.25;;;15.40;99.90;;;;;;4996923;28;20046;-78
2023/03/18 11:38:30;;;;;;;9.27;7.00;;;15.40;99.90;;;;;;4976236;28;20493;-79
2023/03/18 11:41:12;;;;;;;11.02;6.63;;;15.50;99.90;;;;;;5006237;28;20167;-78
2023/03/18 11:43:46;;;;;;;10.38;6.55;;;15.60;99.90;;;;;;4995775;28;20050;-78
2023/03/18 11:46:12;;;;;;;6.78;4.80;;;15.60;99.90;;;;;;4996242;28;20041;-78
2023/03/18 11:48:41;;;;;;;6.03;2.90;;;15.70;99.90;;;;;;4980927;28;20041;-75
2023/03/18 11:51:33;;;;;;;7.00;3.58;;;15.70;99.90;;;;;;4949420;28;20068;-80
2023/03/18 11:54:06;;;;;;;6.20;4.33;;;15.70;99.90;;;;;;4946826;28;20088;-80
2023/03/18 11:56:50;;;;;;;4.05;2.53;;;15.80;99.90;;;;;;4994140;28;20045;-74
2023/03/18 11:59:35;;;;;;;7.32;3.00;;;15.80;99.90;;;;;;4996466;28;20057;-74
2023/03/18 12:02:16;;;;;;;4.82;2.95;;;15.90;99.90;;;;;;4981318;28;20071;-74
2023/03/18 12:05:15;;;;;;;4.72;2.70;;;15.90;99.90;;;;;;4999548;28;20054;-74
2023/03/18 12:07:46;;;;;;;3.55;2.03;;;16.00;99.90;;;;;;5005600;28;20184;-76
2023/03/18 12:10:18;;;;;;;3.53;1.50;;;16.00;99.90;;;;;;5005322;28;20077;-74
2023/03/18 12:13:18;;;;;;;4.90;1.70;;;16.10;99.90;;;;;;5018091;28;20076;-75
2023/03/18 12:15:53;;;;;;;3.38;1.40;;;16.20;99.90;;;;;;5007329;28;20429;-74
2023/03/18 12:18:50;;;;;;;4.40;2.50;;;16.20;99.90;;;;;;5017840;28;20049;-73
2023/03/18 12:21:43;;;;;;;2.55;1.30;;;16.30;99.90;;;;;;4993578;28;20046;-73
2023/03/18 12:24:27;;;;;;;4.03;1.70;;;16.40;99.90;;;;;;4987628;28;20060;-75
2023/03/18 12:27:11;;;;;;;4.45;2.10;;;16.50;99.90;;;;;;4977178;28;20042;-76
2023/03/18 12:30:02;;;;;;;2.20;1.40;;;16.50;99.90;;;;;;5018347;28;20042;-74
2023/03/18 12:32:36;;;;;;;3.22;1.30;;;16.50;99.90;;;;;;5000744;28;20549;-75
2023/03/18 12:35:21;;;;;;;3.17;1.50;;;16.50;99.90;;;;;;5021099;28;20544;-74
2023/03/18 12:38:12;;;;;;;10.20;2.92;;;16.50;99.90;;;;;;4985940;28;20049;-72
2023/03/18 12:41:11;;;;;;;6.63;2.90;;;16.50;99.90;;;;;;5003029;28;20073;-73
2023/03/18 12:43:59;;;;;;;5.95;3.05;;;16.50;99.90;;;;;;5012867;28;20052;-77
2023/03/18 12:46:34;;;;;;;4.38;2.78;;;16.60;99.90;;;;;;4984553;28;20518;-74